sensor_id;sensor_type;location;lat;lon;timestamp;pressure;altitude;pressure_sealevel;temperature;humidity
61488;BME280;47351;53.326;-6.298;2024-01-30T02:23:09;102285.20;;;1.23;98.85
61488;BME280;47351;53.326;-6.298;2024-01-30T02:26:00;102288.92;;;1.22;98.90
61488;BME280;47351;53.326;-6.298;2024-01-30T02:28:51;102292.25;;;1.22;99.01
61488;BME280;47351;53.326;-6.298;2024-01-30T02:31:41;102294.35;;;1.22;99.07
61488;BME280;47351;53.326;-6.298;2024-01-30T02:34:32;102295.40;;;1.23;99.11
61488;BME280;47351;53.326;-6.298;2024-01-30T02:37:23;102298.71;;;1.24;99.03
61488;BME280;47351;53.326;-6.298;2024-01-30T02:40:14;102297.66;;;1.24;99.02
61488;BME280;47351;53.326;-6.298;2024-01-30T02:43:04;102298.38;;;1.23;99.04
61488;BME280;47351;53.326;-6.298;2024-01-30T02:45:55;102302.33;;;1.21;99.02
61488;BME280;47351;53.326;-6.298;2024-01-30T02:48:47;102305.05;;;1.19;98.85
61488;BME280;47351;53.326;-6.298;2024-01-30T02:51:37;102306.90;;;1.16;98.82
61488;BME280;47351;53.326;-6.298;2024-01-30T02:54:28;102311.17;;;1.15;98.84
61488;BME280;47351;53.326;-6.298;2024-01-30T02:57:20;102310.11;;;1.15;98.79
61488;BME280;47351;53.326;-6.298;2024-01-30T03:00:11;102310.47;;;1.15;98.85
61488;BME280;47351;53.326;-6.298;2024-01-30T03:03:02;102311.68;;;1.15;98.89
61488;BME280;47351;53.326;-6.298;2024-01-30T03:05:52;102312.69;;;1.17;98.90
61488;BME280;47351;53.326;-6.298;2024-01-30T03:08:43;102314.59;;;1.18;98.89
61488;BME280;47351;53.326;-6.298;2024-01-30T03:11:33;102316.71;;;1.18;98.88
61488;BME280;47351;53.326;-6.298;2024-01-30T03:14:24;102318.85;;;1.16;98.78
61488;BME280;47351;53.326;-6.298;2024-01-30T03:17:15;102325.75;;;1.15;98.83
61488;BME280;47351;53.326;-6.298;2024-01-30T03:20:06;102329.04;;;1.12;98.78
61488;BME280;47351;53.326;-6.298;2024-01-30T03:22:59;102332.33;;;1.09;98.69
61488;BME280;47351;53.326;-6.298;2024-01-30T03:25:50;102333.18;;;1.05;98.55
61488;BME280;47351;53.326;-6.298;2024-01-30T03:28:40;102336.48;;;1.01;98.54
61488;BME280;47351;53.326;-6.298;2024-01-30T03:31:31;102337.59;;;1.00;98.56
61488;BME280;47351;53.326;-6.298;2024-01-30T03:34:22;102345.33;;;1.00;98.68
61488;BME280;47351;53.326;-6.298;2024-01-30T03:37:12;102349.67;;;1.01;98.73
61488;BME280;47351;53.326;-6.298;2024-01-30T03:40:03;102348.20;;;1.03;98.70
61488;BME280;47351;53.326;-6.298;2024-01-30T03:42:54;102353.09;;;1.04;98.62
61488;BME280;47351;53.326;-6.298;2024-01-30T03:45:45;102356.06;;;1.04;98.61
61488;BME280;47351;53.326;-6.298;2024-01-30T03:48:35;102352.38;;;1.04;98.58
61488;BME280;47351;53.326;-6.298;2024-01-30T03:51:26;102354.52;;;1.03;98.67
61488;BME280;47351;53.326;-6.298;2024-01-30T03:54:17;102357.39;;;1.02;98.72
61488;BME280;47351;53.326;-6.298;2024-01-30T03:57:07;102355.69;;;1.00;98.73
61488;BME280;47351;53.326;-6.298;2024-01-30T03:59:58;102360.34;;;0.98;98.73
61488;BME280;47351;53.326;-6.298;2024-01-30T04:03:00;102364.05;;;0.92;98.50
61488;BME280;47351;53.326;-6.298;2024-01-30T04:05:51;102371.77;;;0.88;98.33
61488;BME280;47351;53.326;-6.298;2024-01-30T04:08:41;102384.42;;;0.83;98.29
61488;BME280;47351;53.326;-6.298;2024-01-30T04:11:32;102387.03;;;0.79;98.26
61488;BME280;47351;53.326;-6.298;2024-01-30T04:14:23;102393.27;;;0.77;98.41
61488;BME280;47351;53.326;-6.298;2024-01-30T04:17:14;102395.58;;;0.76;98.40
61488;BME280;47351;53.326;-6.298;2024-01-30T04:20:05;102395.40;;;0.76;98.42
61488;BME280;47351;53.326;-6.298;2024-01-30T04:22:56;102401.38;;;0.76;98.42
61488;BME280;47351;53.326;-6.298;2024-01-30T04:25:47;102401.02;;;0.76;98.52
61488;BME280;47351;53.326;-6.298;2024-01-30T04:28:37;102407.31;;;0.77;98.39
61488;BME280;47351;53.326;-6.298;2024-01-30T04:31:28;102409.93;;;0.77;98.43
61488;BME280;47351;53.326;-6.298;2024-01-30T04:34:19;102412.03;;;0.78;98.54
61488;BME280;47351;53.326;-6.298;2024-01-30T04:37:10;102414.19;;;0.77;98.31
61488;BME280;47351;53.326;-6.298;2024-01-30T04:40:01;102419.35;;;0.74;98.20
61488;BME280;47351;53.326;-6.298;2024-01-30T04:42:52;102426.65;;;0.72;98.10
61488;BME280;47351;53.326;-6.298;2024-01-30T04:45:42;102433.27;;;0.68;98.02
61488;BME280;47351;53.326;-6.298;2024-01-30T04:48:33;102436.95;;;0.63;97.98
61488;BME280;47351;53.326;-6.298;2024-01-30T04:51:24;102439.15;;;0.60;97.89
61488;BME280;47351;53.326;-6.298;2024-01-30T04:54:14;102442.88;;;0.59;97.87
61488;BME280;47351;53.326;-6.298;2024-01-30T04:57:05;102441.80;;;0.60;97.84
61488;BME280;47351;53.326;-6.298;2024-01-30T04:59:58;102440.20;;;0.61;97.89
61488;BME280;47351;53.326;-6.298;2024-01-30T05:02:49;102443.45;;;0.64;97.93
61488;BME280;47351;53.326;-6.298;2024-01-30T05:05:40;102447.40;;;0.66;97.85
61488;BME280;47351;53.326;-6.298;2024-01-30T05:08:30;102451.23;;;0.67;97.80
61488;BME280;47351;53.326;-6.298;2024-01-30T05:11:21;102451.54;;;0.68;97.70
61488;BME280;47351;53.326;-6.298;2024-01-30T05:14:12;102454.40;;;0.67;97.67
61488;BME280;47351;53.326;-6.298;2024-01-30T05:17:04;102456.75;;;0.65;97.67
61488;BME280;47351;53.326;-6.298;2024-01-30T05:19:54;102460.15;;;0.63;97.67
61488;BME280;47351;53.326;-6.298;2024-01-30T05:22:45;102467.59;;;0.61;97.58
61488;BME280;47351;53.326;-6.298;2024-01-30T05:25:36;102473.42;;;0.60;97.52
61488;BME280;47351;53.326;-6.298;2024-01-30T05:28:26;102481.17;;;0.59;97.54
61488;BME280;47351;53.326;-6.298;2024-01-30T05:31:17;102481.88;;;0.59;97.65
61488;BME280;47351;53.326;-6.298;2024-01-30T05:34:08;102485.19;;;0.60;97.73
61488;BME280;47351;53.326;-6.298;2024-01-30T05:36:59;102487.40;;;0.62;97.83
61488;BME280;47351;53.326;-6.298;2024-01-30T05:39:50;102492.74;;;0.66;97.94
61488;BME280;47351;53.326;-6.298;2024-01-30T05:42:41;102491.42;;;0.68;98.02
61488;BME280;47351;53.326;-6.298;2024-01-30T05:45:32;102490.14;;;0.70;98.02
61488;BME280;47351;53.326;-6.298;2024-01-30T05:48:23;102491.16;;;0.71;98.13
61488;BME280;47351;53.326;-6.298;2024-01-30T05:51:13;102497.10;;;0.72;98.09
61488;BME280;47351;53.326;-6.298;2024-01-30T05:54:04;102501.14;;;0.72;98.21
61488;BME280;47351;53.326;-6.298;2024-01-30T05:56:54;102499.44;;;0.71;98.13
61488;BME280;47351;53.326;-6.298;2024-01-30T05:59:45;102504.46;;;0.73;98.15
61488;BME280;47351;53.326;-6.298;2024-01-30T06:02:36;102511.45;;;0.74;98.11
61488;BME280;47351;53.326;-6.298;2024-01-30T06:05:27;102514.61;;;0.74;98.02
61488;BME280;47351;53.326;-6.298;2024-01-30T06:08:18;102521.32;;;0.74;97.94
61488;BME280;47351;53.326;-6.298;2024-01-30T06:11:11;102525.00;;;0.74;98.03
61488;BME280;47351;53.326;-6.298;2024-01-30T06:14:01;102526.35;;;0.75;98.20
61488;BME280;47351;53.326;-6.298;2024-01-30T06:16:52;102526.98;;;0.77;98.31
61488;BME280;47351;53.326;-6.298;2024-01-30T06:19:43;102526.76;;;0.79;98.46
61488;BME280;47351;53.326;-6.298;2024-01-30T06:22:33;102532.16;;;0.80;98.68
61488;BME280;47351;53.326;-6.298;2024-01-30T06:25:24;102538.62;;;0.81;98.81
61488;BME280;47351;53.326;-6.298;2024-01-30T06:28:15;102542.13;;;0.82;98.81
61488;BME280;47351;53.326;-6.298;2024-01-30T06:31:06;102545.50;;;0.81;98.67
61488;BME280;47351;53.326;-6.298;2024-01-30T06:33:56;102549.93;;;0.80;98.69
61488;BME280;47351;53.326;-6.298;2024-01-30T06:36:47;102557.34;;;0.79;98.64
61488;BME280;47351;53.326;-6.298;2024-01-30T06:39:37;102560.52;;;0.78;98.63
61488;BME280;47351;53.326;-6.298;2024-01-30T06:42:28;102555.48;;;0.77;98.62
61488;BME280;47351;53.326;-6.298;2024-01-30T06:45:18;102557.89;;;0.78;98.67
61488;BME280;47351;53.326;-6.298;2024-01-30T06:48:09;102563.83;;;0.79;98.75
61488;BME280;47351;53.326;-6.298;2024-01-30T06:51:00;102569.42;;;0.80;98.83
61488;BME280;47351;53.326;-6.298;2024-01-30T06:53:50;102572.70;;;0.82;99.02
61488;BME280;47351;53.326;-6.298;2024-01-30T06:56:41;102575.06;;;0.85;98.98
61488;BME280;47351;53.326;-6.298;2024-01-30T06:59:32;102572.69;;;0.88;99.10
61488;BME280;47351;53.326;-6.298;2024-01-30T07:02:22;102577.50;;;0.91;99.25
61488;BME280;47351;53.326;-6.298;2024-01-30T07:05:13;102581.11;;;0.93;99.30
61488;BME280;47351;53.326;-6.298;2024-01-30T07:08:05;102584.09;;;0.94;99.22
61488;BME280;47351;53.326;-6.298;2024-01-30T07:10:56;102594.67;;;0.93;99.16
61488;BME280;47351;53.326;-6.298;2024-01-30T07:13:49;102597.55;;;0.91;99.11
61488;BME280;47351;53.326;-6.298;2024-01-30T07:16:40;102598.13;;;0.89;99.04
61488;BME280;47351;53.326;-6.298;2024-01-30T07:19:31;102600.13;;;0.87;99.01
61488;BME280;47351;53.326;-6.298;2024-01-30T07:22:21;102603.38;;;0.85;99.07
61488;BME280;47351;53.326;-6.298;2024-01-30T07:25:13;102608.21;;;0.82;98.98
61488;BME280;47351;53.326;-6.298;2024-01-30T07:28:04;102612.17;;;0.79;99.05
61488;BME280;47351;53.326;-6.298;2024-01-30T07:30:55;102611.72;;;0.77;99.03
61488;BME280;47351;53.326;-6.298;2024-01-30T07:33:49;102612.63;;;0.76;99.05
61488;BME280;47351;53.326;-6.298;2024-01-30T07:36:40;102616.30;;;0.77;99.13
61488;BME280;47351;53.326;-6.298;2024-01-30T07:39:30;102619.05;;;0.78;99.37
61488;BME280;47351;53.326;-6.298;2024-01-30T07:42:21;102624.44;;;0.80;99.45
61488;BME280;47351;53.326;-6.298;2024-01-30T07:45:12;102639.06;;;0.85;99.57
61488;BME280;47351;53.326;-6.298;2024-01-30T07:48:02;102646.47;;;0.89;99.52
61488;BME280;47351;53.326;-6.298;2024-01-30T07:50:53;102650.23;;;0.98;99.50
61488;BME280;47351;53.326;-6.298;2024-01-30T07:53:44;102652.60;;;1.07;99.44
61488;BME280;47351;53.326;-6.298;2024-01-30T07:56:40;102651.59;;;1.16;99.29
61488;BME280;47351;53.326;-6.298;2024-01-30T07:59:31;102655.20;;;1.25;99.13
61488;BME280;47351;53.326;-6.298;2024-01-30T08:02:21;102658.83;;;1.31;99.04
61488;BME280;47351;53.326;-6.298;2024-01-30T08:05:12;102660.81;;;1.35;98.78
61488;BME280;47351;53.326;-6.298;2024-01-30T08:08:05;102660.77;;;1.37;98.63
61488;BME280;47351;53.326;-6.298;2024-01-30T08:10:57;102662.73;;;1.36;98.38
61488;BME280;47351;53.326;-6.298;2024-01-30T08:13:48;102668.02;;;1.35;98.33
61488;BME280;47351;53.326;-6.298;2024-01-30T08:16:38;102670.15;;;1.35;98.22
61488;BME280;47351;53.326;-6.298;2024-01-30T08:19:29;102675.05;;;1.35;98.27
61488;BME280;47351;53.326;-6.298;2024-01-30T08:22:20;102676.42;;;1.37;98.26
61488;BME280;47351;53.326;-6.298;2024-01-30T08:25:10;102681.61;;;1.40;98.31
61488;BME280;47351;53.326;-6.298;2024-01-30T08:28:02;102688.35;;;1.43;98.32
61488;BME280;47351;53.326;-6.298;2024-01-30T08:30:53;102692.66;;;1.46;98.21
61488;BME280;47351;53.326;-6.298;2024-01-30T08:33:43;102699.06;;;1.49;98.18
61488;BME280;47351;53.326;-6.298;2024-01-30T08:36:35;102701.99;;;1.51;98.03
61488;BME280;47351;53.326;-6.298;2024-01-30T08:39:26;102702.99;;;1.53;97.90
61488;BME280;47351;53.326;-6.298;2024-01-30T08:42:17;102708.59;;;1.54;97.71
61488;BME280;47351;53.326;-6.298;2024-01-30T08:45:11;102715.84;;;1.53;97.51
61488;BME280;47351;53.326;-6.298;2024-01-30T08:48:02;102716.37;;;1.53;97.41
61488;BME280;47351;53.326;-6.298;2024-01-30T08:50:53;102713.88;;;1.54;97.35
61488;BME280;47351;53.326;-6.298;2024-01-30T08:53:43;102710.65;;;1.55;97.31
61488;BME280;47351;53.326;-6.298;2024-01-30T08:56:34;102708.10;;;1.58;97.37
61488;BME280;47351;53.326;-6.298;2024-01-30T08:59:25;102712.76;;;1.61;97.44
61488;BME280;47351;53.326;-6.298;2024-01-30T09:02:15;102718.39;;;1.66;97.60
61488;BME280;47351;53.326;-6.298;2024-01-30T09:05:07;102719.23;;;1.73;97.60
61488;BME280;47351;53.326;-6.298;2024-01-30T09:07:58;102721.10;;;1.79;97.65
61488;BME280;47351;53.326;-6.298;2024-01-30T09:10:48;102726.89;;;1.86;97.68
61488;BME280;47351;53.326;-6.298;2024-01-30T09:13:40;102727.40;;;1.92;97.59
61488;BME280;47351;53.326;-6.298;2024-01-30T09:16:31;102734.75;;;1.98;97.54
61488;BME280;47351;53.326;-6.298;2024-01-30T09:19:21;102740.23;;;2.02;97.50
61488;BME280;47351;53.326;-6.298;2024-01-30T09:22:12;102745.88;;;2.06;97.50
61488;BME280;47351;53.326;-6.298;2024-01-30T09:25:03;102750.97;;;2.13;97.49
61488;BME280;47351;53.326;-6.298;2024-01-30T09:27:53;102755.84;;;2.19;97.45
61488;BME280;47351;53.326;-6.298;2024-01-30T09:30:44;102763.67;;;2.27;97.40
61488;BME280;47351;53.326;-6.298;2024-01-30T09:33:35;102763.23;;;2.34;97.51
61488;BME280;47351;53.326;-6.298;2024-01-30T09:36:25;102765.79;;;2.42;97.56
61488;BME280;47351;53.326;-6.298;2024-01-30T09:39:16;102766.23;;;2.49;97.39
61488;BME280;47351;53.326;-6.298;2024-01-30T09:42:11;102770.34;;;2.58;97.30
61488;BME280;47351;53.326;-6.298;2024-01-30T09:45:02;102773.41;;;2.65;97.18
61488;BME280;47351;53.326;-6.298;2024-01-30T09:47:53;102769.45;;;2.72;97.12
61488;BME280;47351;53.326;-6.298;2024-01-30T09:50:44;102776.16;;;2.77;97.10
61488;BME280;47351;53.326;-6.298;2024-01-30T09:53:34;102780.41;;;2.81;97.06
61488;BME280;47351;53.326;-6.298;2024-01-30T09:56:26;102784.89;;;2.84;96.88
61488;BME280;47351;53.326;-6.298;2024-01-30T09:59:16;102781.23;;;2.87;96.84
61488;BME280;47351;53.326;-6.298;2024-01-30T10:02:08;102783.73;;;2.91;96.78
61488;BME280;47351;53.326;-6.298;2024-01-30T10:04:59;102782.17;;;2.95;96.74
61488;BME280;47351;53.326;-6.298;2024-01-30T10:07:56;102789.45;;;2.98;96.64
61488;BME280;47351;53.326;-6.298;2024-01-30T10:10:48;102796.05;;;3.01;96.54
61488;BME280;47351;53.326;-6.298;2024-01-30T10:13:42;102797.68;;;3.04;96.49
61488;BME280;47351;53.326;-6.298;2024-01-30T10:16:33;102794.88;;;3.09;96.43
61488;BME280;47351;53.326;-6.298;2024-01-30T10:19:24;102795.90;;;3.14;96.58
61488;BME280;47351;53.326;-6.298;2024-01-30T10:22:16;102789.64;;;3.21;96.66
61488;BME280;47351;53.326;-6.298;2024-01-30T10:25:07;102792.44;;;3.31;96.78
61488;BME280;47351;53.326;-6.298;2024-01-30T10:28:00;102794.04;;;3.44;96.84
61488;BME280;47351;53.326;-6.298;2024-01-30T10:30:58;102790.59;;;3.60;96.81
61488;BME280;47351;53.326;-6.298;2024-01-30T10:33:54;102794.83;;;3.81;96.82
61488;BME280;47351;53.326;-6.298;2024-01-30T10:37:06;102793.02;;;4.07;96.30
61488;BME280;47351;53.326;-6.298;2024-01-30T10:40:02;102789.90;;;4.35;95.56
61488;BME280;47351;53.326;-6.298;2024-01-30T10:42:55;102787.16;;;4.49;95.22
61488;BME280;47351;53.326;-6.298;2024-01-30T10:45:46;102789.96;;;4.54;94.82
61488;BME280;47351;53.326;-6.298;2024-01-30T10:48:41;102790.28;;;4.62;94.56
61488;BME280;47351;53.326;-6.298;2024-01-30T10:51:33;102800.27;;;4.76;94.42
61488;BME280;47351;53.326;-6.298;2024-01-30T10:54:25;102800.35;;;4.86;93.99
61488;BME280;47351;53.326;-6.298;2024-01-30T10:57:16;102801.27;;;4.97;93.86
61488;BME280;47351;53.326;-6.298;2024-01-30T11:00:08;102803.67;;;5.10;93.85
61488;BME280;47351;53.326;-6.298;2024-01-30T11:03:00;102807.23;;;5.29;93.57
61488;BME280;47351;53.326;-6.298;2024-01-30T11:05:51;102804.67;;;5.49;93.12
61488;BME280;47351;53.326;-6.298;2024-01-30T11:08:42;102811.90;;;5.83;92.45
61488;BME280;47351;53.326;-6.298;2024-01-30T11:11:33;102813.41;;;6.13;91.91
61488;BME280;47351;53.326;-6.298;2024-01-30T11:14:37;102811.86;;;6.30;91.63
61488;BME280;47351;53.326;-6.298;2024-01-30T11:17:29;102813.24;;;6.34;90.87
61488;BME280;47351;53.326;-6.298;2024-01-30T11:20:30;102823.76;;;6.33;90.21
61488;BME280;47351;53.326;-6.298;2024-01-30T11:23:23;102829.02;;;6.31;89.55
61488;BME280;47351;53.326;-6.298;2024-01-30T11:26:13;102830.27;;;6.31;88.59
61488;BME280;47351;53.326;-6.298;2024-01-30T11:29:06;102825.89;;;6.33;88.45
61488;BME280;47351;53.326;-6.298;2024-01-30T11:31:58;102823.83;;;6.38;88.37
61488;BME280;47351;53.326;-6.298;2024-01-30T11:34:48;102824.91;;;6.45;88.43
61488;BME280;47351;53.326;-6.298;2024-01-30T11:37:40;102828.09;;;6.55;87.98
61488;BME280;47351;53.326;-6.298;2024-01-30T11:40:32;102830.77;;;6.72;87.38
61488;BME280;47351;53.326;-6.298;2024-01-30T11:43:23;102831.66;;;7.08;87.10
61488;BME280;47351;53.326;-6.298;2024-01-30T11:46:14;102832.49;;;7.38;86.35
61488;BME280;47351;53.326;-6.298;2024-01-30T11:49:04;102824.80;;;7.77;85.01
61488;BME280;47351;53.326;-6.298;2024-01-30T11:51:55;102823.05;;;7.83;84.07
61488;BME280;47351;53.326;-6.298;2024-01-30T11:54:46;102819.48;;;7.89;83.86
61488;BME280;47351;53.326;-6.298;2024-01-30T11:57:37;102817.07;;;8.36;83.92
61488;BME280;47351;53.326;-6.298;2024-01-30T12:00:28;102817.94;;;8.55;83.08
61488;BME280;47351;53.326;-6.298;2024-01-30T12:03:20;102814.22;;;8.33;83.20
61488;BME280;47351;53.326;-6.298;2024-01-30T12:06:10;102804.14;;;8.20;83.64
61488;BME280;47351;53.326;-6.298;2024-01-30T12:09:01;102797.23;;;8.26;83.55
61488;BME280;47351;53.326;-6.298;2024-01-30T12:11:53;102794.70;;;8.35;82.93
61488;BME280;47351;53.326;-6.298;2024-01-30T12:14:44;102791.55;;;8.70;82.89
61488;BME280;47351;53.326;-6.298;2024-01-30T12:17:34;102785.30;;;9.37;82.03
61488;BME280;47351;53.326;-6.298;2024-01-30T12:20:25;102777.61;;;10.16;80.74
61488;BME280;47351;53.326;-6.298;2024-01-30T12:23:16;102771.83;;;10.74;79.05
61488;BME280;47351;53.326;-6.298;2024-01-30T12:26:09;102767.08;;;11.00;77.93
61488;BME280;47351;53.326;-6.298;2024-01-30T12:29:00;102763.34;;;10.83;76.78
61488;BME280;47351;53.326;-6.298;2024-01-30T12:31:53;102757.52;;;10.74;76.45
61488;BME280;47351;53.326;-6.298;2024-01-30T12:34:44;102749.70;;;11.45;76.85
61488;BME280;47351;53.326;-6.298;2024-01-30T12:37:48;102737.42;;;13.01;74.92
61488;BME280;47351;53.326;-6.298;2024-01-30T12:40:39;102737.70;;;14.07;72.53
61488;BME280;47351;53.326;-6.298;2024-01-30T12:43:31;102728.10;;;15.89;69.83
61488;BME280;47351;53.326;-6.298;2024-01-30T12:46:28;102725.79;;;16.48;67.47
61488;BME280;47351;53.326;-6.298;2024-01-30T12:49:19;102724.20;;;16.88;65.44
61488;BME280;47351;53.326;-6.298;2024-01-30T12:52:10;102729.46;;;17.94;63.31
61488;BME280;47351;53.326;-6.298;2024-01-30T12:55:01;102730.64;;;18.73;58.24
61488;BME280;47351;53.326;-6.298;2024-01-30T12:57:53;102721.27;;;19.27;55.11
61488;BME280;47351;53.326;-6.298;2024-01-30T13:00:43;102712.91;;;20.28;53.25
61488;BME280;47351;53.326;-6.298;2024-01-30T13:03:34;102708.77;;;21.86;50.68
61488;BME280;47351;53.326;-6.298;2024-01-30T13:06:26;102708.77;;;23.01;47.64
61488;BME280;47351;53.326;-6.298;2024-01-30T13:09:16;102712.21;;;23.24;46.84
61488;BME280;47351;53.326;-6.298;2024-01-30T13:12:07;102726.23;;;23.31;46.18
61488;BME280;47351;53.326;-6.298;2024-01-30T13:14:58;102730.35;;;23.19;44.63
61488;BME280;47351;53.326;-6.298;2024-01-30T13:17:50;102739.56;;;23.23;43.73
61488;BME280;47351;53.326;-6.298;2024-01-30T13:20:46;102739.79;;;23.38;42.88
61488;BME280;47351;53.326;-6.298;2024-01-30T13:23:36;102735.90;;;23.50;42.01
61488;BME280;47351;53.326;-6.298;2024-01-30T13:26:27;102728.69;;;23.82;41.91
61488;BME280;47351;53.326;-6.298;2024-01-30T13:29:20;102727.95;;;24.39;41.16
61488;BME280;47351;53.326;-6.298;2024-01-30T13:32:10;102729.95;;;24.08;40.14
61488;BME280;47351;53.326;-6.298;2024-01-30T13:35:01;102727.80;;;23.55;40.19
61488;BME280;47351;53.326;-6.298;2024-01-30T13:37:52;102712.27;;;24.12;40.13
61488;BME280;47351;53.326;-6.298;2024-01-30T13:40:43;102711.48;;;24.90;39.42
61488;BME280;47351;53.326;-6.298;2024-01-30T13:43:34;102717.02;;;25.42;37.85
61488;BME280;47351;53.326;-6.298;2024-01-30T13:46:24;102722.08;;;25.02;36.90
61488;BME280;47351;53.326;-6.298;2024-01-30T13:49:15;102722.27;;;24.94;35.91
61488;BME280;47351;53.326;-6.298;2024-01-30T13:52:06;102717.92;;;24.42;35.36
61488;BME280;47351;53.326;-6.298;2024-01-30T13:54:57;102716.97;;;22.97;36.90
61488;BME280;47351;53.326;-6.298;2024-01-30T13:57:48;102723.83;;;22.58;36.90
61488;BME280;47351;53.326;-6.298;2024-01-30T14:00:40;102726.80;;;21.87;37.31
61488;BME280;47351;53.326;-6.298;2024-01-30T14:03:30;102729.77;;;19.94;38.57
61488;BME280;47351;53.326;-6.298;2024-01-30T14:06:21;102733.52;;;18.01;39.31
61488;BME280;47351;53.326;-6.298;2024-01-30T14:09:12;102738.80;;;16.47;41.00
61488;BME280;47351;53.326;-6.298;2024-01-30T14:12:04;102738.59;;;16.29;41.63
61488;BME280;47351;53.326;-6.298;2024-01-30T14:14:55;102727.13;;;18.08;41.32
61488;BME280;47351;53.326;-6.298;2024-01-30T14:17:46;102723.10;;;19.32;39.59
61488;BME280;47351;53.326;-6.298;2024-01-30T14:20:38;102715.63;;;20.19;38.78
61488;BME280;47351;53.326;-6.298;2024-01-30T14:23:29;102712.61;;;20.79;38.44
61488;BME280;47351;53.326;-6.298;2024-01-30T14:26:20;102711.77;;;21.40;38.31
61488;BME280;47351;53.326;-6.298;2024-01-30T14:29:11;102713.64;;;21.58;36.97
61488;BME280;47351;53.326;-6.298;2024-01-30T14:32:01;102719.80;;;21.38;36.20
61488;BME280;47351;53.326;-6.298;2024-01-30T14:34:53;102730.88;;;19.50;36.66
61488;BME280;47351;53.326;-6.298;2024-01-30T14:37:44;102731.75;;;17.18;38.68
61488;BME280;47351;53.326;-6.298;2024-01-30T14:40:34;102738.21;;;15.39;40.63
61488;BME280;47351;53.326;-6.298;2024-01-30T14:43:25;102746.07;;;14.01;42.52
61488;BME280;47351;53.326;-6.298;2024-01-30T14:46:15;102748.36;;;13.87;43.52
61488;BME280;47351;53.326;-6.298;2024-01-30T14:49:06;102745.40;;;15.20;43.13
61488;BME280;47351;53.326;-6.298;2024-01-30T14:51:59;102732.17;;;16.20;42.34
61488;BME280;47351;53.326;-6.298;2024-01-30T14:54:49;102728.40;;;16.91;42.14
61488;BME280;47351;53.326;-6.298;2024-01-30T14:57:40;102720.61;;;17.43;40.89
61488;BME280;47351;53.326;-6.298;2024-01-30T15:00:31;102719.73;;;17.64;40.11
61488;BME280;47351;53.326;-6.298;2024-01-30T15:03:22;102721.39;;;17.60;39.53
61488;BME280;47351;53.326;-6.298;2024-01-30T15:06:16;102723.03;;;17.51;39.92
61488;BME280;47351;53.326;-6.298;2024-01-30T15:09:07;102727.06;;;17.31;39.25
61488;BME280;47351;53.326;-6.298;2024-01-30T15:11:58;102732.03;;;17.02;39.63
61488;BME280;47351;53.326;-6.298;2024-01-30T15:14:49;102729.64;;;16.58;40.06
61488;BME280;47351;53.326;-6.298;2024-01-30T15:17:40;102731.64;;;15.76;41.04
61488;BME280;47351;53.326;-6.298;2024-01-30T15:20:31;102743.88;;;14.93;41.56
61488;BME280;47351;53.326;-6.298;2024-01-30T15:23:21;102743.06;;;13.71;42.67
61488;BME280;47351;53.326;-6.298;2024-01-30T15:26:12;102740.27;;;12.70;44.00
61488;BME280;47351;53.326;-6.298;2024-01-30T15:29:03;102734.75;;;11.91;45.71
61488;BME280;47351;53.326;-6.298;2024-01-30T15:31:53;102743.42;;;11.56;46.70
61488;BME280;47351;53.326;-6.298;2024-01-30T15:34:44;102758.45;;;11.20;47.47
61488;BME280;47351;53.326;-6.298;2024-01-30T15:37:35;102759.89;;;10.75;48.31
61488;BME280;47351;53.326;-6.298;2024-01-30T15:40:26;102762.66;;;10.31;49.30
61488;BME280;47351;53.326;-6.298;2024-01-30T15:43:17;102772.33;;;9.91;50.45
61488;BME280;47351;53.326;-6.298;2024-01-30T15:46:08;102777.20;;;9.55;51.45
61488;BME280;47351;53.326;-6.298;2024-01-30T15:48:58;102787.54;;;9.22;52.36
61488;BME280;47351;53.326;-6.298;2024-01-30T15:51:50;102796.70;;;8.93;53.31
61488;BME280;47351;53.326;-6.298;2024-01-30T15:54:41;102796.34;;;8.67;54.23
61488;BME280;47351;53.326;-6.298;2024-01-30T15:57:31;102794.88;;;8.44;54.94
61488;BME280;47351;53.326;-6.298;2024-01-30T16:00:22;102805.59;;;8.23;55.91
61488;BME280;47351;53.326;-6.298;2024-01-30T16:03:13;102811.79;;;8.05;56.57
61488;BME280;47351;53.326;-6.298;2024-01-30T16:06:04;102808.95;;;7.90;57.34
61488;BME280;47351;53.326;-6.298;2024-01-30T16:08:54;102800.91;;;7.75;57.98
61488;BME280;47351;53.326;-6.298;2024-01-30T16:11:45;102798.59;;;7.63;58.72
61488;BME280;47351;53.326;-6.298;2024-01-30T16:14:36;102800.77;;;7.53;59.39
61488;BME280;47351;53.326;-6.298;2024-01-30T16:17:26;102803.50;;;7.42;60.05
61488;BME280;47351;53.326;-6.298;2024-01-30T16:20:17;102803.70;;;7.29;60.79
61488;BME280;47351;53.326;-6.298;2024-01-30T16:23:07;102807.96;;;7.16;61.18
61488;BME280;47351;53.326;-6.298;2024-01-30T16:25:58;102810.91;;;7.05;61.77
61488;BME280;47351;53.326;-6.298;2024-01-30T16:28:49;102800.58;;;6.92;62.18
61488;BME280;47351;53.326;-6.298;2024-01-30T16:31:39;102792.52;;;6.80;62.78
61488;BME280;47351;53.326;-6.298;2024-01-30T16:34:30;102795.23;;;6.69;63.30
61488;BME280;47351;53.326;-6.298;2024-01-30T16:37:21;102803.79;;;6.59;63.80
61488;BME280;47351;53.326;-6.298;2024-01-30T16:40:11;102807.77;;;6.47;64.12
61488;BME280;47351;53.326;-6.298;2024-01-30T16:43:02;102813.97;;;6.37;64.68
61488;BME280;47351;53.326;-6.298;2024-01-30T16:45:53;102825.61;;;6.28;65.07
61488;BME280;47351;53.326;-6.298;2024-01-30T16:48:43;102831.39;;;6.19;65.40
61488;BME280;47351;53.326;-6.298;2024-01-30T16:51:34;102835.95;;;6.09;65.74
61488;BME280;47351;53.326;-6.298;2024-01-30T16:54:25;102833.53;;;6.01;66.25
61488;BME280;47351;53.326;-6.298;2024-01-30T16:57:15;102837.67;;;5.91;66.75
61488;BME280;47351;53.326;-6.298;2024-01-30T17:00:07;102849.94;;;5.84;67.20
61488;BME280;47351;53.326;-6.298;2024-01-30T17:02:58;102861.30;;;5.76;67.58
61488;BME280;47351;53.326;-6.298;2024-01-30T17:05:52;102864.50;;;5.68;67.94
61488;BME280;47351;53.326;-6.298;2024-01-30T17:08:47;102862.77;;;5.60;68.45
61488;BME280;47351;53.326;-6.298;2024-01-30T17:11:37;102863.84;;;5.52;68.81
61488;BME280;47351;53.326;-6.298;2024-01-30T17:14:28;102862.45;;;5.45;69.19